Terminal Aerodrome Forecast
Issued by NWS Wilmington, NC

Home | Current Version | Previous Version | Text Only | Print | Product List | Glossary On
Versions: 1 2 3 4 5 6 7 8 9 10 11 12 13 14 15 16
024
FTUS42 KILM 071131 CCA
TAFMYR
TAF COR
KMYR 071131Z 0712/0812 32008KT P6SM OVC008
     FM071500 35006KT P6SM FEW020 SCT250
     FM072100 VRB04KT P6SM SKC
     FM080000 00000KT P6SM SKC
     FM080300 33002KT P6SM SCT025 OVC100=

USA.gov is the U.S. government's official web portal to all federal, state and local government web resources and services.